Time,TemperatureF,DewpointF,PressureIn,WindDirection,WindDirectionDegrees,WindSpeedMPH,WindSpeedGustMPH,Humidity,HourlyPrecipIn,Conditions,Clouds,dailyrainin,SoftwareType,DateUTC
2013-10-06 00:02:00,62.4,43.5,29.97,North,360,0.7,3.5,50,0.00,CLR,,0.00,WeatherDisplay:10.37,2013-10-06 05:02:00,
2013-10-06 00:07:00,62.4,44.5,29.96,NNW,336,1.3,3.5,52,0.00,CLR,,0.00,WeatherDisplay:10.37,2013-10-06 05:07:00,
2013-10-06 00:12:00,62.3,44.4,29.96,NNW,336,0.5,1.2,52,0.00,CLR,,0.00,WeatherDisplay:10.37,2013-10-06 05:12:00,
2013-10-06 00:17:00,62.3,44.4,29.96,NNW,342,0.6,2.3,52,0.00,CLR,,0.00,WeatherDisplay:10.37,2013-10-06 05:17:00,
2013-10-06 00:22:00,62.3,44.4,29.96,NNW,339,0.4,2.3,52,0.00,CLR,,0.00,WeatherDisplay:10.37,2013-10-06 05:22:00,
2013-10-06 00:27:00,62.3,44.4,29.96,NW,325,0.0,3.5,52,0.00,CLR,,0.00,WeatherDisplay:10.37,2013-10-06 05:27:00,
2013-10-06 00:32:00,62.2,44.3,29.96,NW,315,0.9,2.3,52,0.00,CLR,,0.00,WeatherDisplay:10.37,2013-10-06 05:32:00,
2013-10-06 00:37:00,62.2,44.9,29.96,NNW,327,1.1,3.5,53,0.00,CLR,,0.00,WeatherDisplay:10.37,2013-10-06 05:37:00,
2013-10-06 00:42:00,62.2,44.9,29.96,North,351,1.8,3.5,53,0.00,CLR,,0.00,WeatherDisplay:10.37,2013-10-06 05:42:00,
2013-10-06 00:47:00,62.2,45.3,29.96,WNW,302,1.0,3.5,54,0.00,CLR,,0.00,WeatherDisplay:10.37,2013-10-06 05:47:00,
2013-10-06 00:52:00,62.3,44.9,29.96,ENE,60,0.9,3.5,53,0.00,CLR,,0.00,WeatherDisplay:10.37,2013-10-06 05:52:00,
2013-10-06 00:57:00,62.3,45.4,29.97,North,9,1.1,2.3,54,0.00,CLR,,0.00,WeatherDisplay:10.37,2013-10-06 05:57:00,
2013-10-06 01:02:00,62.4,46.0,29.97,NNW,344,0.0,0.0,55,0.00,CLR,,0.00,WeatherDisplay:10.37,2013-10-06 06:02:00,
2013-10-06 01:07:00,62.5,46.1,29.97,NNE,23,0.1,2.3,55,0.00,CLR,,0.00,WeatherDisplay:10.37,2013-10-06 06:07:00,
2013-10-06 01:12:00,62.5,46.6,29.97,NNW,348,1.4,5.8,56,0.00,CLR,,0.00,WeatherDisplay:10.37,2013-10-06 06:12:00,
2013-10-06 01:17:00,62.5,46.6,29.98,NNW,342,1.4,3.5,56,0.00,CLR,,0.00,WeatherDisplay:10.37,2013-10-06 06:17:00,
2013-10-06 01:22:00,62.5,46.6,29.98,West,281,1.6,4.6,56,0.00,CLR,,0.00,WeatherDisplay:10.37,2013-10-06 06:22:00,
2013-10-06 01:27:00,62.5,46.6,29.97,North,5,2.1,4.6,56,0.00,CLR,,0.00,WeatherDisplay:10.37,2013-10-06 06:27:00,
2013-10-06 01:32:00,62.4,46.5,29.98,North,355,0.5,2.3,56,0.00,CLR,,0.00,WeatherDisplay:10.37,2013-10-06 06:32:00,
2013-10-06 01:37:00,62.4,47.0,29.98,NNW,329,1.1,3.5,57,0.00,CLR,,0.00,WeatherDisplay:10.37,2013-10-06 06:37:00,
2013-10-06 01:42:00,62.4,47.0,29.98,NE,42,0.2,3.0,57,0.00,CLR,,0.00,WeatherDisplay:10.37,2013-10-06 06:42:00,
2013-10-06 01:47:00,62.3,46.9,29.98,ENE,57,0.0,2.3,57,0.00,CLR,,0.00,WeatherDisplay:10.37,2013-10-06 06:47:00,
2013-10-06 01:52:00,62.4,47.0,29.98,North,5,1.6,3.5,57,0.00,CLR,,0.00,WeatherDisplay:10.37,2013-10-06 06:52:00,
2013-10-06 01:57:00,62.4,46.5,29.98,NNE,30,1.4,3.5,56,0.00,CLR,,0.00,WeatherDisplay:10.37,2013-10-06 06:57:00,
2013-10-06 02:02:00,62.4,47.0,29.98,NW,319,0.0,0.0,57,0.00,CLR,,0.00,WeatherDisplay:10.37,2013-10-06 07:02:00,
2013-10-06 02:07:00,62.4,47.0,29.98,North,355,0.3,3.5,57,0.00,CLR,,0.00,WeatherDisplay:10.37,2013-10-06 07:07:00,
2013-10-06 02:12:00,62.4,47.4,29.98,North,355,0.1,0.0,58,0.00,CLR,,0.00,WeatherDisplay:10.37,2013-10-06 07:12:00,
2013-10-06 02:17:00,62.4,47.4,29.98,WNW,298,0.4,2.3,58,0.00,CLR,,0.00,WeatherDisplay:10.37,2013-10-06 07:17:00,
2013-10-06 02:22:00,62.4,47.4,29.98,NNE,26,0.5,2.3,58,0.00,CLR,,0.00,WeatherDisplay:10.37,2013-10-06 07:22:00,
2013-10-06 02:27:00,62.4,47.4,29.98,North,360,0.5,2.0,58,0.00,CLR,,0.00,WeatherDisplay:10.37,2013-10-06 07:27:00,
2013-10-06 02:32:00,62.5,47.5,29.98,North,355,1.5,4.6,58,0.00,CLR,,0.00,WeatherDisplay:10.37,2013-10-06 07:32:00,
2013-10-06 02:37:00,62.5,47.1,30.00,NNW,346,1.3,2.3,57,0.00,CLR,,0.00,WeatherDisplay:10.37,2013-10-06 07:37:00,
2013-10-06 02:42:00,62.6,47.6,30.01,WNW,301,1.9,3.5,58,0.00,CLR,,0.00,WeatherDisplay:10.37,2013-10-06 07:42:00,
2013-10-06 02:47:00,62.7,47.2,30.01,NW,306,1.2,4.6,57,0.00,CLR,,0.00,WeatherDisplay:10.37,2013-10-06 07:47:00,
2013-10-06 02:52:00,62.7,46.8,30.01,NW,324,1.6,3.5,56,0.00,CLR,,0.00,WeatherDisplay:10.37,2013-10-06 07:52:00,
2013-10-06 02:57:00,62.8,46.9,30.00,NNW,343,2.7,4.6,56,0.00,CLR,,0.00,WeatherDisplay:10.37,2013-10-06 07:57:00,
2013-10-06 03:02:00,62.8,46.9,30.00,NNW,348,0.0,0.0,56,0.00,CLR,,0.00,WeatherDisplay:10.37,2013-10-06 08:02:00,
2013-10-06 03:07:00,62.8,47.3,30.00,East,88,1.0,3.5,57,0.00,CLR,,0.00,WeatherDisplay:10.37,2013-10-06 08:07:00,
2013-10-06 03:12:00,62.7,47.7,29.98,North,355,0.5,3.5,58,0.00,CLR,,0.00,WeatherDisplay:10.37,2013-10-06 08:12:00,
2013-10-06 03:17:00,62.6,47.6,29.98,North,5,1.6,4.6,58,0.00,CLR,,0.00,WeatherDisplay:10.37,2013-10-06 08:17:00,
2013-10-06 03:22:00,62.5,47.5,29.98,North,350,1.3,4.6,58,0.00,CLR,,0.00,WeatherDisplay:10.37,2013-10-06 08:22:00,
2013-10-06 03:27:00,62.4,47.4,29.98,NNE,25,0.0,1.2,58,0.00,CLR,,0.00,WeatherDisplay:10.37,2013-10-06 08:27:00,
2013-10-06 03:32:00,62.3,47.8,30.00,NW,323,4.4,6.9,59,0.00,CLR,,0.00,WeatherDisplay:10.37,2013-10-06 08:32:00,
2013-10-06 03:37:00,61.8,51.5,30.00,North,350,1.1,3.5,69,0.04,RA,,0.04,WeatherDisplay:10.37,2013-10-06 08:37:00,
2013-10-06 03:42:00,60.4,51.7,30.00,NNE,29,2.2,4.6,73,0.06,RA,,0.06,WeatherDisplay:10.37,2013-10-06 08:42:00,
2013-10-06 03:47:00,59.1,51.9,30.00,NNW,338,1.8,4.6,77,0.06,RA,,0.06,WeatherDisplay:10.37,2013-10-06 08:47:00,
2013-10-06 03:52:00,57.8,51.7,30.00,NNW,335,3.3,5.8,80,0.06,CLR,,0.06,WeatherDisplay:10.37,2013-10-06 08:52:00,
2013-10-06 03:57:00,56.8,51.4,29.99,North,355,2.7,5.8,82,0.06,CLR,,0.06,WeatherDisplay:10.37,2013-10-06 08:57:00,
2013-10-06 04:02:00,56.2,51.4,29.99,NNW,336,2.0,3.5,84,0.06,CLR,,0.06,WeatherDisplay:10.37,2013-10-06 09:02:00,
2013-10-06 04:07:00,55.7,51.3,29.99,North,5,2.0,3.5,85,0.06,CLR,,0.06,WeatherDisplay:10.37,2013-10-06 09:07:00,
2013-10-06 04:09:00,55.5,51.1,30.00,NNW,331,1.5,3.5,85,0.06,CLR,,0.06,WeatherDisplay:10.37,2013-10-06 09:09:00,
2013-10-06 04:14:00,55.2,51.1,30.00,North,5,1.0,3.5,86,0.06,CLR,,0.06,WeatherDisplay:10.37,2013-10-06 09:14:00,
2013-10-06 04:19:00,55.0,51.2,30.01,NW,321,0.8,5.0,87,0.06,CLR,,0.06,WeatherDisplay:10.37,2013-10-06 09:19:00,
2013-10-06 04:24:00,54.7,50.9,30.02,NNE,15,0.3,2.3,87,0.06,CLR,,0.06,WeatherDisplay:10.37,2013-10-06 09:24:00,
2013-10-06 04:29:00,54.5,50.7,30.02,WNW,300,0.1,1.2,87,0.07,RA,,0.07,WeatherDisplay:10.37,2013-10-06 09:29:00,
2013-10-06 04:34:00,54.5,51.0,30.02,NNW,338,0.5,3.5,88,0.09,RA,,0.10,WeatherDisplay:10.37,2013-10-06 09:34:00,
2013-10-06 04:39:00,54.3,50.8,30.01,NNE,30,0.8,3.5,88,0.12,RA,,0.17,WeatherDisplay:10.37,2013-10-06 09:39:00,
2013-10-06 04:44:00,54.1,50.9,30.01,NE,34,0.0,1.2,89,0.16,RA,,0.22,WeatherDisplay:10.37,2013-10-06 09:44:00,
2013-10-06 04:49:00,54.0,50.8,30.02,ESE,109,0.0,1.2,89,0.18,RA,,0.24,WeatherDisplay:10.37,2013-10-06 09:49:00,
2013-10-06 04:54:00,53.8,50.6,30.03,ENE,73,0.0,0.0,89,0.18,RA,,0.24,WeatherDisplay:10.37,2013-10-06 09:54:00,
2013-10-06 04:59:00,53.7,50.8,30.04,NE,50,0.0,0.0,90,0.18,,,0.24,WeatherDisplay:10.37,2013-10-06 09:59:00,
2013-10-06 05:04:00,53.7,50.8,30.04,NE,49,0.1,0.0,90,0.18,CLR,,0.24,WeatherDisplay:10.37,2013-10-06 10:04:00,
2013-10-06 05:09:00,53.7,50.8,30.05,NNE,15,0.0,0.0,90,0.19,RA,,0.25,WeatherDisplay:10.37,2013-10-06 10:09:00,
2013-10-06 05:14:00,53.7,50.8,30.05,NNE,15,0.0,0.0,90,0.20,RA,,0.26,WeatherDisplay:10.37,2013-10-06 10:14:00,
2013-10-06 05:19:00,53.7,51.1,30.03,NNE,15,0.0,0.0,91,0.20,RA,,0.26,WeatherDisplay:10.37,2013-10-06 10:19:00,
2013-10-06 05:24:00,53.8,51.2,30.01,NNE,15,0.1,1.2,91,0.20,CLR,,0.26,WeatherDisplay:10.37,2013-10-06 10:24:00,
2013-10-06 05:29:00,53.8,51.2,30.01,NNE,15,0.0,1.2,91,0.21,RA,,0.28,WeatherDisplay:10.37,2013-10-06 10:29:00,
2013-10-06 05:34:00,53.7,51.1,30.02,NNE,19,0.0,0.0,91,0.20,RA,,0.30,WeatherDisplay:10.37,2013-10-06 10:34:00,
2013-10-06 05:39:00,53.7,51.4,30.03,NNE,19,0.0,0.0,92,0.14,RA,,0.31,WeatherDisplay:10.37,2013-10-06 10:39:00,
2013-10-06 05:44:00,53.7,51.4,30.03,NNE,19,0.0,0.0,92,0.10,RA,,0.32,WeatherDisplay:10.37,2013-10-06 10:44:00,
2013-10-06 05:49:00,53.7,51.4,30.03,NNE,19,0.0,0.0,92,0.08,RA,,0.32,WeatherDisplay:10.37,2013-10-06 10:49:00,
2013-10-06 05:54:00,53.7,51.4,30.03,NNE,19,0.0,0.0,92,0.08,CLR,,0.32,WeatherDisplay:10.37,2013-10-06 10:54:00,
2013-10-06 05:59:00,53.7,51.4,30.03,NNE,19,0.0,0.0,92,0.08,CLR,,0.32,WeatherDisplay:10.37,2013-10-06 10:59:00,
2013-10-06 06:04:00,53.9,51.9,30.03,NNE,19,0.0,0.0,93,0.08,CLR,,0.32,WeatherDisplay:10.37,2013-10-06 11:04:00,
2013-10-06 06:09:00,53.9,51.9,30.03,NNE,19,0.0,0.0,93,0.07,CLR,,0.32,WeatherDisplay:10.37,2013-10-06 11:09:00,
2013-10-06 06:14:00,54.0,52.0,30.03,NNE,19,0.0,0.0,93,0.06,CLR,,0.32,WeatherDisplay:10.37,2013-10-06 11:14:00,
2013-10-06 06:19:00,54.0,52.0,30.03,NNE,19,0.0,0.0,93,0.06,CLR,,0.32,WeatherDisplay:10.37,2013-10-06 11:19:00,
2013-10-06 06:24:00,54.0,52.0,30.03,NNE,19,0.0,0.0,93,0.06,CLR,,0.32,WeatherDisplay:10.37,2013-10-06 11:24:00,
2013-10-06 06:29:00,54.0,52.0,30.03,NNE,19,0.0,0.0,93,0.04,CLR,,0.32,WeatherDisplay:10.37,2013-10-06 11:29:00,
2013-10-06 06:34:00,54.0,52.0,30.04,NNE,19,0.0,0.0,93,0.02,CLR,,0.32,WeatherDisplay:10.37,2013-10-06 11:34:00,
2013-10-06 06:39:00,54.0,52.0,30.04,NNE,19,0.0,0.0,93,0.01,CLR,,0.32,WeatherDisplay:10.37,2013-10-06 11:39:00,
2013-10-06 06:44:00,54.0,52.0,30.04,NNE,19,0.0,0.0,93,0.00,CLR,,0.32,WeatherDisplay:10.37,2013-10-06 11:44:00,
2013-10-06 06:49:00,54.1,52.1,30.04,NNE,19,0.0,0.0,93,0.00,CLR,,0.32,WeatherDisplay:10.37,2013-10-06 11:49:00,
2013-10-06 06:54:00,54.1,52.1,30.05,NNE,19,0.0,0.0,93,0.00,CLR,,0.32,WeatherDisplay:10.37,2013-10-06 11:54:00,
2013-10-06 06:59:00,54.1,52.1,30.05,NNE,19,0.0,0.0,93,0.00,CLR,,0.32,WeatherDisplay:10.37,2013-10-06 11:59:00,
2013-10-06 07:04:00,54.1,52.1,30.05,NNE,19,0.0,0.0,93,0.00,CLR,,0.32,WeatherDisplay:10.37,2013-10-06 12:04:00,
2013-10-06 07:09:00,54.1,52.1,30.05,NNE,19,0.0,0.0,93,0.00,CLR,,0.32,WeatherDisplay:10.37,2013-10-06 12:09:00,
2013-10-06 07:14:00,54.1,52.1,30.05,NNE,19,0.0,0.0,93,0.00,CLR,,0.32,WeatherDisplay:10.37,2013-10-06 12:14:00,
2013-10-06 07:19:00,54.0,52.0,30.05,NNE,19,0.0,0.0,93,0.00,CLR,,0.32,WeatherDisplay:10.37,2013-10-06 12:19:00,
2013-10-06 07:24:00,54.0,52.0,30.06,NNE,19,0.0,0.0,93,0.00,CLR,,0.32,WeatherDisplay:10.37,2013-10-06 12:24:00,
2013-10-06 07:29:00,53.9,51.9,30.05,NNE,19,0.0,0.0,93,0.00,CLR,,0.32,WeatherDisplay:10.37,2013-10-06 12:29:00,
2013-10-06 07:34:00,53.9,51.9,30.05,NNE,19,0.0,0.0,93,0.00,CLR,,0.32,WeatherDisplay:10.37,2013-10-06 12:34:00,
2013-10-06 07:39:00,53.9,51.9,30.06,NNE,19,0.0,0.0,93,0.00,CLR,,0.32,WeatherDisplay:10.37,2013-10-06 12:39:00,
2013-10-06 07:44:00,53.9,51.9,30.06,NNE,19,0.0,0.0,93,0.00,CLR,,0.32,WeatherDisplay:10.37,2013-10-06 12:44:00,
2013-10-06 07:49:00,53.9,51.9,30.06,NNE,19,0.0,0.0,93,0.00,CLR,,0.32,WeatherDisplay:10.37,2013-10-06 12:49:00,
2013-10-06 07:54:00,53.8,51.8,30.06,NNE,19,0.0,0.0,93,0.00,CLR,,0.32,WeatherDisplay:10.37,2013-10-06 12:54:00,
2013-10-06 07:59:00,53.8,51.8,30.05,NNE,19,0.0,0.0,93,0.00,CLR,,0.32,WeatherDisplay:10.37,2013-10-06 12:59:00,
2013-10-06 08:04:00,53.7,51.7,30.06,NNE,19,0.0,0.0,93,0.00,CLR,,0.32,WeatherDisplay:10.37,2013-10-06 13:04:00,
2013-10-06 08:09:00,53.7,51.7,30.05,NNE,19,0.0,0.0,93,0.00,CLR,,0.32,WeatherDisplay:10.37,2013-10-06 13:09:00,
2013-10-06 08:14:00,53.6,51.6,30.05,NNE,19,0.0,0.0,93,0.00,CLR,,0.32,WeatherDisplay:10.37,2013-10-06 13:14:00,
2013-10-06 08:19:00,53.6,51.6,30.06,NNE,19,0.0,0.0,93,0.00,CLR,,0.32,WeatherDisplay:10.37,2013-10-06 13:19:00,
2013-10-06 08:24:00,53.5,51.5,30.05,NNE,19,0.0,0.0,93,0.00,CLR,,0.32,WeatherDisplay:10.37,2013-10-06 13:24:00,
2013-10-06 08:29:00,53.5,51.5,30.05,NNE,19,0.0,0.0,93,0.00,CLR,,0.32,WeatherDisplay:10.37,2013-10-06 13:29:00,
2013-10-06 08:34:00,53.6,51.9,30.05,NNE,19,0.0,0.0,94,0.00,CLR,,0.32,WeatherDisplay:10.37,2013-10-06 13:34:00,
2013-10-06 08:39:00,53.9,52.2,30.05,NNE,19,0.0,0.0,94,0.00,CLR,,0.32,WeatherDisplay:10.37,2013-10-06 13:39:00,
2013-10-06 08:44:00,54.2,52.5,30.05,NNE,19,0.1,1.2,94,0.00,CLR,,0.32,WeatherDisplay:10.37,2013-10-06 13:44:00,
2013-10-06 08:49:00,54.5,52.8,30.05,NW,309,0.1,1.2,94,0.00,CLR,,0.32,WeatherDisplay:10.37,2013-10-06 13:49:00,
2013-10-06 08:54:00,54.6,52.9,30.05,WNW,302,0.0,0.0,94,0.00,CLR,,0.32,WeatherDisplay:10.37,2013-10-06 13:54:00,
2013-10-06 08:59:00,54.8,53.1,30.06,West,271,0.2,4.0,94,0.00,CLR,,0.32,WeatherDisplay:10.37,2013-10-06 13:59:00,
2013-10-06 09:04:00,55.1,53.4,30.06,NW,306,0.8,2.3,94,0.00,CLR,,0.32,WeatherDisplay:10.37,2013-10-06 14:04:00,
2013-10-06 09:09:00,55.2,53.5,30.06,NW,309,0.1,2.3,94,0.00,CLR,,0.32,WeatherDisplay:10.37,2013-10-06 14:09:00,
2013-10-06 09:14:00,55.4,53.7,30.06,NW,309,0.1,1.2,94,0.00,CLR,,0.32,WeatherDisplay:10.37,2013-10-06 14:14:00,
2013-10-06 09:19:00,55.5,53.8,30.06,NW,326,0.0,0.0,94,0.00,CLR,,0.32,WeatherDisplay:10.37,2013-10-06 14:19:00,
2013-10-06 09:24:00,55.5,53.8,30.06,NNW,338,0.0,1.2,94,0.00,CLR,,0.32,WeatherDisplay:10.37,2013-10-06 14:24:00,
2013-10-06 09:29:00,55.7,54.0,30.05,NNW,333,0.0,0.0,94,0.00,CLR,,0.32,WeatherDisplay:10.37,2013-10-06 14:29:00,
2013-10-06 09:34:00,55.8,54.1,30.05,NNW,341,0.3,3.5,94,0.00,CLR,,0.32,WeatherDisplay:10.37,2013-10-06 14:34:00,
2013-10-06 09:39:00,56.0,54.3,30.06,NW,318,0.0,1.2,94,0.00,CLR,,0.32,WeatherDisplay:10.37,2013-10-06 14:39:00,
2013-10-06 09:44:00,56.2,54.5,30.06,NW,318,1.1,3.5,94,0.00,CLR,,0.32,WeatherDisplay:10.37,2013-10-06 14:44:00,
2013-10-06 09:49:00,56.5,54.5,30.06,NW,318,0.0,0.0,93,0.00,CLR,,0.32,WeatherDisplay:10.37,2013-10-06 14:49:00,
2013-10-06 09:54:00,56.8,54.8,30.07,NW,307,0.0,0.0,93,0.00,CLR,,0.32,WeatherDisplay:10.37,2013-10-06 14:54:00,
2013-10-06 09:59:00,57.1,55.1,30.07,WNW,298,0.0,0.0,93,0.00,CLR,,0.32,WeatherDisplay:10.37,2013-10-06 14:59:00,
2013-10-06 10:04:00,57.5,55.2,30.07,WNW,294,0.3,1.2,92,0.00,CLR,,0.32,WeatherDisplay:10.37,2013-10-06 15:04:00,
2013-10-06 10:09:00,57.9,55.3,30.07,NW,311,0.3,2.3,91,0.00,CLR,,0.32,WeatherDisplay:10.37,2013-10-06 15:09:00,
2013-10-06 10:14:00,58.4,55.2,30.07,WNW,300,0.3,2.3,89,0.00,CLR,,0.32,WeatherDisplay:10.37,2013-10-06 15:14:00,
2013-10-06 10:19:00,58.9,55.0,30.08,NW,313,0.8,2.3,87,0.00,CLR,,0.32,WeatherDisplay:10.37,2013-10-06 15:19:00,
2013-10-06 10:24:00,59.5,55.0,30.08,NNW,327,1.2,3.5,85,0.00,CLR,,0.32,WeatherDisplay:10.37,2013-10-06 15:24:00,
2013-10-06 10:29:00,60.1,54.6,30.08,NNW,342,0.5,3.5,82,0.00,CLR,,0.32,WeatherDisplay:10.37,2013-10-06 15:29:00,
2013-10-06 10:34:00,60.7,54.5,30.08,NW,315,0.7,3.5,80,0.00,CLR,,0.32,WeatherDisplay:10.37,2013-10-06 15:34:00,
2013-10-06 10:39:00,61.2,54.6,30.08,NW,318,0.3,2.3,79,0.00,CLR,,0.32,WeatherDisplay:10.37,2013-10-06 15:39:00,
2013-10-06 10:44:00,61.7,55.1,30.08,WNW,293,0.7,3.0,79,0.00,CLR,,0.32,WeatherDisplay:10.37,2013-10-06 15:44:00,
2013-10-06 10:49:00,62.1,54.1,30.08,WNW,302,1.0,3.5,75,0.00,CLR,,0.32,WeatherDisplay:10.37,2013-10-06 15:49:00,
2013-10-06 10:54:00,62.7,54.7,30.08,WNW,303,0.2,2.3,75,0.00,CLR,,0.32,WeatherDisplay:10.37,2013-10-06 15:54:00,
2013-10-06 10:59:00,63.3,53.0,30.08,NNW,331,0.7,3.5,69,0.00,CLR,,0.32,WeatherDisplay:10.37,2013-10-06 15:59:00,
2013-10-06 11:04:00,63.8,52.6,30.09,NNW,342,0.3,2.3,67,0.00,CLR,,0.32,WeatherDisplay:10.37,2013-10-06 16:04:00,
2013-10-06 11:09:00,64.3,51.4,30.09,NNW,341,0.1,1.2,63,0.00,CLR,,0.32,WeatherDisplay:10.37,2013-10-06 16:09:00,
2013-10-06 11:14:00,64.7,51.4,30.09,NNW,341,0.6,2.3,62,0.00,CLR,,0.32,WeatherDisplay:10.37,2013-10-06 16:14:00,
2013-10-06 11:19:00,65.2,51.0,30.09,NNW,342,1.4,4.0,60,0.00,CLR,,0.32,WeatherDisplay:10.37,2013-10-06 16:19:00,
2013-10-06 11:24:00,65.6,50.0,30.08,NNE,32,1.4,3.5,57,0.00,CLR,,0.32,WeatherDisplay:10.37,2013-10-06 16:24:00,
2013-10-06 11:29:00,66.1,49.0,30.09,North,355,1.9,3.5,54,0.00,CLR,,0.32,WeatherDisplay:10.37,2013-10-06 16:29:00,
2013-10-06 11:34:00,66.5,48.8,30.08,NNW,339,1.7,4.6,53,0.00,CLR,,0.32,WeatherDisplay:10.37,2013-10-06 16:34:00,
2013-10-06 11:39:00,67.0,49.8,30.09,NNW,338,1.6,4.6,54,0.00,CLR,,0.32,WeatherDisplay:10.37,2013-10-06 16:39:00,
2013-10-06 11:44:00,67.4,49.2,30.08,NNW,335,0.2,1.2,52,0.00,CLR,,0.32,WeatherDisplay:10.37,2013-10-06 16:44:00,
2013-10-06 11:49:00,67.8,50.0,30.08,NNW,336,0.8,3.5,53,0.00,CLR,,0.32,WeatherDisplay:10.37,2013-10-06 16:49:00,
2013-10-06 11:54:00,68.1,48.2,30.08,North,360,0.3,2.3,49,0.00,CLR,,0.32,WeatherDisplay:10.37,2013-10-06 16:54:00,
2013-10-06 11:59:00,68.6,49.2,30.08,ENE,69,2.0,4.6,50,0.00,CLR,,0.32,WeatherDisplay:10.37,2013-10-06 16:59:00,
2013-10-06 12:04:00,69.0,49.6,30.08,NW,313,0.3,3.0,50,0.00,CLR,,0.32,WeatherDisplay:10.37,2013-10-06 17:04:00,
2013-10-06 12:09:00,69.4,48.3,30.08,NNW,347,0.7,4.6,47,0.00,CLR,,0.32,WeatherDisplay:10.37,2013-10-06 17:09:00,
2013-10-06 12:14:00,69.8,49.2,30.08,East,92,0.1,1.2,48,0.00,CLR,,0.32,WeatherDisplay:10.37,2013-10-06 17:14:00,
2013-10-06 12:19:00,70.2,47.3,30.08,NNE,14,0.6,3.5,44,0.00,CLR,,0.32,WeatherDisplay:10.37,2013-10-06 17:19:00,
2013-10-06 12:24:00,70.4,47.4,30.08,ENE,76,0.6,2.3,44,0.00,CLR,,0.32,WeatherDisplay:10.37,2013-10-06 17:24:00,
2013-10-06 12:29:00,70.7,48.9,30.08,ENE,61,0.1,1.2,46,0.00,CLR,,0.32,WeatherDisplay:10.37,2013-10-06 17:29:00,
2013-10-06 12:34:00,71.1,46.8,30.08,NNW,338,1.3,3.5,42,0.00,CLR,,0.32,WeatherDisplay:10.37,2013-10-06 17:34:00,
2013-10-06 12:39:00,71.5,46.6,30.08,North,5,1.6,3.5,41,0.00,CLR,,0.32,WeatherDisplay:10.37,2013-10-06 17:39:00,
2013-10-06 12:44:00,71.7,44.0,30.07,ESE,111,2.5,4.6,37,0.00,CLR,,0.32,WeatherDisplay:10.37,2013-10-06 17:44:00,
2013-10-06 12:49:00,72.0,45.7,30.07,NNE,17,0.9,3.5,39,0.00,CLR,,0.32,WeatherDisplay:10.37,2013-10-06 17:49:00,
2013-10-06 12:54:00,72.3,44.6,30.07,North,360,1.5,3.5,37,0.00,CLR,,0.32,WeatherDisplay:10.37,2013-10-06 17:54:00,
2013-10-06 12:59:00,72.6,43.4,30.07,North,355,1.4,3.5,35,0.00,CLR,,0.32,WeatherDisplay:10.37,2013-10-06 17:59:00,
2013-10-06 13:04:00,72.9,44.4,30.07,NNE,22,2.1,3.5,36,0.00,CLR,,0.32,WeatherDisplay:10.37,2013-10-06 18:04:00,
2013-10-06 13:09:00,73.2,44.6,30.06,NNE,32,0.5,3.5,36,0.00,CLR,,0.32,WeatherDisplay:10.37,2013-10-06 18:09:00,
2013-10-06 13:14:00,73.8,45.9,30.06,North,5,0.1,2.0,37,0.00,CLR,,0.32,WeatherDisplay:10.37,2013-10-06 18:14:00,
2013-10-06 13:19:00,74.2,43.2,30.06,North,9,2.3,4.6,33,0.00,CLR,,0.32,WeatherDisplay:10.37,2013-10-06 18:19:00,
2013-10-06 13:24:00,74.6,42.8,30.06,North,10,0.6,3.0,32,0.00,CLR,,0.32,WeatherDisplay:10.37,2013-10-06 18:24:00,
2013-10-06 13:29:00,74.9,44.6,30.06,ENE,72,0.1,2.3,34,0.00,CLR,,0.32,WeatherDisplay:10.37,2013-10-06 18:29:00,
2013-10-06 13:34:00,75.4,47.3,30.05,NW,313,1.3,4.6,37,0.00,CLR,,0.32,WeatherDisplay:10.37,2013-10-06 18:34:00,
2013-10-06 13:39:00,75.7,43.7,30.05,North,5,1.6,3.5,32,0.00,CLR,,0.32,WeatherDisplay:10.37,2013-10-06 18:39:00,
2013-10-06 13:44:00,75.9,43.9,30.05,NNW,343,1.5,3.5,32,0.00,CLR,,0.32,WeatherDisplay:10.37,2013-10-06 18:44:00,
2013-10-06 13:49:00,76.1,43.3,30.05,ENE,74,1.8,3.5,31,0.00,CLR,,0.32,WeatherDisplay:10.37,2013-10-06 18:49:00,
2013-10-06 13:54:00,76.2,45.0,30.05,NNE,33,2.0,5.8,33,0.00,CLR,,0.32,WeatherDisplay:10.37,2013-10-06 18:54:00,
2013-10-06 13:59:00,76.4,45.2,30.04,NNW,346,1.4,3.5,33,0.00,CLR,,0.32,WeatherDisplay:10.37,2013-10-06 18:59:00,
2013-10-06 14:04:00,76.8,45.5,30.04,NNW,339,0.2,1.2,33,0.00,CLR,,0.32,WeatherDisplay:10.37,2013-10-06 19:04:00,
2013-10-06 14:09:00,77.5,46.9,30.04,NE,36,0.2,1.2,34,0.00,CLR,,0.32,WeatherDisplay:10.37,2013-10-06 19:09:00,
2013-10-06 14:14:00,77.8,47.2,30.04,NNE,21,0.3,2.3,34,0.00,CLR,,0.32,WeatherDisplay:10.37,2013-10-06 19:14:00,
2013-10-06 14:19:00,78.3,46.8,30.04,NNW,342,0.1,1.2,33,0.00,CLR,,0.32,WeatherDisplay:10.37,2013-10-06 19:19:00,
2013-10-06 14:24:00,79.1,47.5,30.03,NE,45,1.4,3.5,33,0.00,CLR,,0.32,WeatherDisplay:10.37,2013-10-06 19:24:00,
2013-10-06 14:29:00,79.1,45.9,30.03,NW,316,0.6,2.0,31,0.00,CLR,,0.32,WeatherDisplay:10.37,2013-10-06 19:29:00,
2013-10-06 14:34:00,79.1,45.9,30.03,WNW,302,0.4,3.5,31,0.00,CLR,,0.32,WeatherDisplay:10.37,2013-10-06 19:34:00,
2013-10-06 14:39:00,79.3,46.0,30.03,NNE,20,0.5,5.8,31,0.00,CLR,,0.32,WeatherDisplay:10.37,2013-10-06 19:39:00,
2013-10-06 14:44:00,79.0,47.4,30.03,North,355,0.3,2.0,33,0.00,CLR,,0.32,WeatherDisplay:10.37,2013-10-06 19:44:00,
2013-10-06 14:49:00,79.5,47.9,30.03,NNW,327,1.7,3.5,33,0.00,CLR,,0.32,WeatherDisplay:10.37,2013-10-06 19:49:00,
2013-10-06 14:54:00,79.7,47.2,30.03,NNW,342,0.7,5.0,32,0.00,CLR,,0.32,WeatherDisplay:10.37,2013-10-06 19:54:00,
2013-10-06 14:59:00,79.4,44.4,30.03,WNW,298,1.8,3.5,29,0.00,CLR,,0.32,WeatherDisplay:10.37,2013-10-06 19:59:00,
2013-10-06 15:04:00,79.2,45.1,30.02,NNW,333,0.6,3.5,30,0.00,CLR,,0.32,WeatherDisplay:10.37,2013-10-06 20:04:00,
2013-10-06 15:09:00,79.5,47.9,30.02,NE,38,0.0,1.2,33,0.00,CLR,,0.32,WeatherDisplay:10.37,2013-10-06 20:09:00,
2013-10-06 15:14:00,80.2,45.9,30.02,WSW,250,1.2,3.5,30,0.00,CLR,,0.32,WeatherDisplay:10.37,2013-10-06 20:14:00,
2013-10-06 15:19:00,80.5,47.1,30.02,NW,326,0.3,3.5,31,0.00,CLR,,0.32,WeatherDisplay:10.37,2013-10-06 20:19:00,
2013-10-06 15:24:00,80.6,46.3,30.02,NE,44,0.3,2.3,30,0.00,CLR,,0.32,WeatherDisplay:10.37,2013-10-06 20:24:00,
2013-10-06 15:29:00,80.4,47.0,30.02,NNE,25,0.0,1.2,31,0.00,CLR,,0.32,WeatherDisplay:10.37,2013-10-06 20:29:00,
2013-10-06 15:34:00,80.6,46.3,30.01,North,355,0.2,1.2,30,0.00,CLR,,0.32,WeatherDisplay:10.37,2013-10-06 20:34:00,
2013-10-06 15:39:00,80.1,46.7,30.01,NNW,343,0.0,2.3,31,0.00,CLR,,0.32,WeatherDisplay:10.37,2013-10-06 20:39:00,
2013-10-06 15:44:00,80.7,46.4,30.01,North,351,1.7,3.5,30,0.00,CLR,,0.32,WeatherDisplay:10.37,2013-10-06 20:44:00,
2013-10-06 15:49:00,80.5,46.2,30.01,NW,314,0.8,3.5,30,0.00,CLR,,0.32,WeatherDisplay:10.37,2013-10-06 20:49:00,
2013-10-06 15:54:00,80.6,46.3,30.01,North,9,0.0,1.2,30,0.00,CLR,,0.32,WeatherDisplay:10.37,2013-10-06 20:54:00,
2013-10-06 15:59:00,81.0,47.5,30.01,NW,315,1.2,3.5,31,0.00,CLR,,0.32,WeatherDisplay:10.37,2013-10-06 20:59:00,
2013-10-06 16:04:00,81.4,46.1,30.01,WNW,296,0.0,1.2,29,0.00,CLR,,0.32,WeatherDisplay:10.37,2013-10-06 21:04:00,
2013-10-06 16:09:00,81.8,44.5,30.01,NW,315,2.0,3.5,27,0.00,CLR,,0.32,WeatherDisplay:10.37,2013-10-06 21:09:00,
2013-10-06 16:14:00,81.8,44.5,30.01,North,5,0.2,3.5,27,0.00,CLR,,0.32,WeatherDisplay:10.37,2013-10-06 21:14:00,
2013-10-06 16:19:00,81.6,45.3,30.00,NW,316,0.8,3.5,28,0.00,CLR,,0.32,WeatherDisplay:10.37,2013-10-06 21:19:00,
2013-10-06 16:24:00,81.6,45.3,30.00,WNW,298,0.3,1.2,28,0.00,CLR,,0.32,WeatherDisplay:10.37,2013-10-06 21:24:00,
2013-10-06 16:29:00,81.6,45.3,30.00,North,5,0.0,1.2,28,0.00,CLR,,0.32,WeatherDisplay:10.37,2013-10-06 21:29:00,
2013-10-06 16:34:00,81.8,43.6,30.00,NNW,347,0.9,3.5,26,0.00,CLR,,0.32,WeatherDisplay:10.37,2013-10-06 21:34:00,
2013-10-06 16:39:00,81.6,42.4,30.00,ENE,68,0.3,4.0,25,0.00,CLR,,0.32,WeatherDisplay:10.37,2013-10-06 21:39:00,
2013-10-06 16:44:00,81.1,43.0,30.00,NE,53,0.0,1.2,26,0.00,CLR,,0.32,WeatherDisplay:10.37,2013-10-06 21:44:00,
2013-10-06 16:49:00,80.8,41.7,30.00,NNE,26,0.0,2.3,25,0.00,CLR,,0.32,WeatherDisplay:10.37,2013-10-06 21:49:00,
2013-10-06 16:54:00,80.8,41.7,30.00,NNW,331,0.9,2.3,25,0.00,CLR,,0.32,WeatherDisplay:10.37,2013-10-06 21:54:00,
2013-10-06 16:59:00,81.1,40.9,30.00,NW,312,0.1,1.2,24,0.00,CLR,,0.32,WeatherDisplay:10.37,2013-10-06 21:59:00,
2013-10-06 17:04:00,81.1,43.0,30.00,NNE,23,0.2,3.5,26,0.00,CLR,,0.32,WeatherDisplay:10.37,2013-10-06 22:04:00,
2013-10-06 17:09:00,81.1,41.9,30.00,NNW,340,0.1,1.2,25,0.00,CLR,,0.32,WeatherDisplay:10.37,2013-10-06 22:09:00,
2013-10-06 17:14:00,81.2,39.9,30.00,NNW,343,0.0,0.0,23,0.00,CLR,,0.32,WeatherDisplay:10.37,2013-10-06 22:14:00,
2013-10-06 17:19:00,81.1,40.9,30.00,NW,322,0.1,1.2,24,0.00,CLR,,0.32,WeatherDisplay:10.37,2013-10-06 22:19:00,
2013-10-06 17:24:00,80.8,39.5,30.00,East,90,0.4,2.3,23,0.00,CLR,,0.32,WeatherDisplay:10.37,2013-10-06 22:24:00,
2013-10-06 17:29:00,80.6,40.5,30.00,East,86,0.2,0.0,24,0.00,CLR,,0.32,WeatherDisplay:10.37,2013-10-06 22:29:00,
2013-10-06 17:34:00,80.1,38.9,30.00,ENE,78,0.1,1.2,23,0.00,CLR,,0.32,WeatherDisplay:10.37,2013-10-06 22:34:00,
2013-10-06 17:39:00,79.9,40.9,30.00,ENE,78,0.2,0.0,25,0.00,CLR,,0.32,WeatherDisplay:10.37,2013-10-06 22:39:00,
2013-10-06 17:44:00,79.7,40.8,30.00,East,85,0.0,1.2,25,0.00,CLR,,0.32,WeatherDisplay:10.37,2013-10-06 22:44:00,
2013-10-06 17:49:00,79.5,39.5,30.00,East,85,0.0,1.2,24,0.00,CLR,,0.32,WeatherDisplay:10.37,2013-10-06 22:49:00,
2013-10-06 17:54:00,79.3,39.4,30.00,ENE,68,0.0,1.2,24,0.00,CLR,,0.32,WeatherDisplay:10.37,2013-10-06 22:54:00,
2013-10-06 17:59:00,79.0,40.2,30.00,ENE,68,0.0,1.2,25,0.00,CLR,,0.32,WeatherDisplay:10.37,2013-10-06 22:59:00,
2013-10-06 18:04:00,78.7,39.9,30.00,ENE,68,0.0,0.0,25,0.00,CLR,,0.32,WeatherDisplay:10.37,2013-10-06 23:04:00,
2013-10-06 18:09:00,78.5,40.7,30.00,ENE,68,0.0,0.0,26,0.00,CLR,,0.32,WeatherDisplay:10.37,2013-10-06 23:09:00,
2013-10-06 18:14:00,78.2,42.4,30.00,ENE,68,0.0,0.0,28,0.00,CLR,,0.32,WeatherDisplay:10.37,2013-10-06 23:14:00,
2013-10-06 18:19:00,77.8,42.1,30.00,ENE,68,0.0,1.2,28,0.00,CLR,,0.32,WeatherDisplay:10.37,2013-10-06 23:19:00,
2013-10-06 18:24:00,77.7,43.8,30.00,ENE,68,0.0,0.0,30,0.00,CLR,,0.32,WeatherDisplay:10.37,2013-10-06 23:24:00,
2013-10-06 18:29:00,77.4,44.4,30.01,ENE,68,0.0,0.0,31,0.00,CLR,,0.32,WeatherDisplay:10.37,2013-10-06 23:29:00,
2013-10-06 18:34:00,77.1,44.1,30.01,ENE,68,0.0,0.0,31,0.00,CLR,,0.32,WeatherDisplay:10.37,2013-10-06 23:34:00,
2013-10-06 18:39:00,76.8,45.5,30.01,ENE,68,0.0,0.0,33,0.00,CLR,,0.32,WeatherDisplay:10.37,2013-10-06 23:39:00,
2013-10-06 18:44:00,76.5,47.6,30.01,ENE,68,0.0,0.0,36,0.00,CLR,,0.32,WeatherDisplay:10.37,2013-10-06 23:44:00,
2013-10-06 18:49:00,76.2,49.4,30.01,ENE,68,0.0,0.0,39,0.00,CLR,,0.32,WeatherDisplay:10.37,2013-10-06 23:49:00,
2013-10-06 18:54:00,75.8,49.8,30.01,ENE,68,0.0,0.0,40,0.00,CLR,,0.32,WeatherDisplay:10.37,2013-10-06 23:54:00,
2013-10-06 18:59:00,75.3,49.3,30.01,ENE,68,0.0,0.0,40,0.00,CLR,,0.32,WeatherDisplay:10.37,2013-10-06 23:59:00,
2013-10-06 19:04:00,74.8,50.8,30.01,ENE,68,0.0,0.0,43,0.00,CLR,,0.32,WeatherDisplay:10.37,2013-10-07 00:04:00,
2013-10-06 19:09:00,74.1,50.8,30.01,ENE,68,0.0,0.0,44,0.00,CLR,,0.32,WeatherDisplay:10.37,2013-10-07 00:09:00,
2013-10-06 19:14:00,73.4,50.8,30.02,ENE,68,0.0,0.0,45,0.00,CLR,,0.32,WeatherDisplay:10.37,2013-10-07 00:14:00,
2013-10-06 19:19:00,72.7,51.3,30.02,ENE,68,0.0,0.0,47,0.00,CLR,,0.32,WeatherDisplay:10.37,2013-10-07 00:19:00,
2013-10-06 19:24:00,71.9,51.1,30.02,ENE,68,0.0,0.0,48,0.00,CLR,,0.32,WeatherDisplay:10.37,2013-10-07 00:24:00,
2013-10-06 19:29:00,71.2,51.1,30.02,ENE,68,0.0,0.0,49,0.00,CLR,,0.32,WeatherDisplay:10.37,2013-10-07 00:29:00,
2013-10-06 19:34:00,70.4,50.9,30.02,ENE,68,0.0,0.0,50,0.00,CLR,,0.32,WeatherDisplay:10.37,2013-10-07 00:34:00,
2013-10-06 19:39:00,69.7,51.3,30.02,ENE,68,0.0,0.0,52,0.00,CLR,,0.32,WeatherDisplay:10.37,2013-10-07 00:39:00,
2013-10-06 19:44:00,68.9,51.1,30.02,ENE,68,0.0,0.0,53,0.00,CLR,,0.32,WeatherDisplay:10.37,2013-10-07 00:44:00,
2013-10-06 19:49:00,68.0,51.2,30.02,ENE,68,0.0,0.0,55,0.00,CLR,,0.32,WeatherDisplay:10.37,2013-10-07 00:49:00,
2013-10-06 19:54:00,67.4,51.2,30.03,ENE,68,0.0,0.0,56,0.00,CLR,,0.32,WeatherDisplay:10.37,2013-10-07 00:54:00,
2013-10-06 19:59:00,66.8,51.1,30.03,ENE,68,0.0,0.0,57,0.00,CLR,,0.32,WeatherDisplay:10.37,2013-10-07 00:59:00,
2013-10-06 20:04:00,66.3,51.1,30.03,ENE,68,0.0,0.0,58,0.00,CLR,,0.32,WeatherDisplay:10.37,2013-10-07 01:04:00,
2013-10-06 20:09:00,65.6,50.9,30.03,ENE,68,0.0,0.0,59,0.00,CLR,,0.32,WeatherDisplay:10.37,2013-10-07 01:09:00,
2013-10-06 20:14:00,64.9,51.1,30.03,ENE,68,0.0,0.0,61,0.00,CLR,,0.32,WeatherDisplay:10.37,2013-10-07 01:14:00,
2013-10-06 20:19:00,64.4,50.7,30.04,ENE,68,0.0,0.0,61,0.00,CLR,,0.32,WeatherDisplay:10.37,2013-10-07 01:19:00,
2013-10-06 20:24:00,63.9,50.6,30.04,ENE,68,0.0,0.0,62,0.00,CLR,,0.32,WeatherDisplay:10.37,2013-10-07 01:24:00,
2013-10-06 20:29:00,63.4,50.6,30.04,ENE,68,0.0,0.0,63,0.00,CLR,,0.32,WeatherDisplay:10.37,2013-10-07 01:29:00,
2013-10-06 20:34:00,62.9,51.0,30.04,ENE,68,0.0,0.0,65,0.00,CLR,,0.32,WeatherDisplay:10.37,2013-10-07 01:34:00,
2013-10-06 20:39:00,62.4,50.5,30.04,ENE,68,0.0,0.0,65,0.00,CLR,,0.32,WeatherDisplay:10.37,2013-10-07 01:39:00,
2013-10-06 20:44:00,62.0,50.1,30.05,ENE,68,0.0,0.0,65,0.00,CLR,,0.32,WeatherDisplay:10.37,2013-10-07 01:44:00,
2013-10-06 20:49:00,61.6,50.1,30.05,ENE,68,0.0,0.0,66,0.00,CLR,,0.32,WeatherDisplay:10.37,2013-10-07 01:49:00,
2013-10-06 20:54:00,61.3,49.8,30.05,ENE,68,0.0,0.0,66,0.00,CLR,,0.32,WeatherDisplay:10.37,2013-10-07 01:54:00,
2013-10-06 20:59:00,60.9,49.5,30.05,ENE,68,0.0,0.0,66,0.00,CLR,,0.32,WeatherDisplay:10.37,2013-10-07 01:59:00,
2013-10-06 21:04:00,60.5,49.5,30.05,ENE,68,0.0,0.0,67,0.00,CLR,,0.32,WeatherDisplay:10.37,2013-10-07 02:04:00,
2013-10-06 21:09:00,60.3,49.3,30.05,ENE,68,0.0,0.0,67,0.00,CLR,,0.32,WeatherDisplay:10.37,2013-10-07 02:09:00,
2013-10-06 21:14:00,60.0,49.4,30.05,ENE,68,0.0,0.0,68,0.00,CLR,,0.32,WeatherDisplay:10.37,2013-10-07 02:14:00,
2013-10-06 21:19:00,59.7,48.7,30.06,ENE,68,0.0,0.0,67,0.00,CLR,,0.32,WeatherDisplay:10.37,2013-10-07 02:19:00,
2013-10-06 21:24:00,59.5,48.9,30.06,ENE,68,0.0,0.0,68,0.00,CLR,,0.32,WeatherDisplay:10.37,2013-10-07 02:24:00,
2013-10-06 21:29:00,59.1,48.5,30.06,ENE,68,0.0,0.0,68,0.00,CLR,,0.32,WeatherDisplay:10.37,2013-10-07 02:29:00,
2013-10-06 21:34:00,58.7,48.2,30.06,ENE,68,0.0,0.0,68,0.00,CLR,,0.32,WeatherDisplay:10.37,2013-10-07 02:34:00,
2013-10-06 21:39:00,58.6,48.1,30.06,ENE,68,0.0,0.0,68,0.00,CLR,,0.32,WeatherDisplay:10.37,2013-10-07 02:39:00,
2013-10-06 21:44:00,58.4,47.5,30.06,ENE,68,0.0,0.0,67,0.00,CLR,,0.32,WeatherDisplay:10.37,2013-10-07 02:44:00,
2013-10-06 21:49:00,58.4,47.5,30.06,ENE,68,0.0,0.0,67,0.00,CLR,,0.32,WeatherDisplay:10.37,2013-10-07 02:49:00,
2013-10-06 21:54:00,58.3,47.8,30.06,ENE,68,0.0,0.0,68,0.00,CLR,,0.32,WeatherDisplay:10.37,2013-10-07 02:54:00,
2013-10-06 21:59:00,58.2,47.3,30.06,ENE,68,0.0,0.0,67,0.00,CLR,,0.32,WeatherDisplay:10.37,2013-10-07 02:59:00,
2013-10-06 22:04:00,58.2,47.3,30.07,ENE,68,0.0,0.0,67,0.00,CLR,,0.32,WeatherDisplay:10.37,2013-10-07 03:04:00,
2013-10-06 22:09:00,58.1,47.2,30.07,ENE,68,0.0,0.0,67,0.00,CLR,,0.32,WeatherDisplay:10.37,2013-10-07 03:09:00,
2013-10-06 22:14:00,58.1,47.2,30.07,ENE,68,0.0,0.0,67,0.00,CLR,,0.32,WeatherDisplay:10.37,2013-10-07 03:14:00,
2013-10-06 22:19:00,58.1,47.6,30.07,ENE,68,0.0,0.0,68,0.00,CLR,,0.32,WeatherDisplay:10.37,2013-10-07 03:19:00,
2013-10-06 22:24:00,58.0,47.1,30.07,ENE,68,0.0,0.0,67,0.00,CLR,,0.32,WeatherDisplay:10.37,2013-10-07 03:24:00,
2013-10-06 22:29:00,58.0,47.1,30.07,ENE,68,0.0,0.0,67,0.00,CLR,,0.32,WeatherDisplay:10.37,2013-10-07 03:29:00,
2013-10-06 22:34:00,58.0,47.1,30.07,ENE,68,0.0,0.0,67,0.00,CLR,,0.32,WeatherDisplay:10.37,2013-10-07 03:34:00,
2013-10-06 22:39:00,58.0,47.1,30.07,ENE,68,0.0,0.0,67,0.00,CLR,,0.32,WeatherDisplay:10.37,2013-10-07 03:39:00,
2013-10-06 22:44:00,58.0,47.1,30.07,ENE,68,0.0,0.0,67,0.00,CLR,,0.32,WeatherDisplay:10.37,2013-10-07 03:44:00,
2013-10-06 22:49:00,57.9,47.0,30.07,ENE,68,0.0,0.0,67,0.00,CLR,,0.32,WeatherDisplay:10.37,2013-10-07 03:49:00,
2013-10-06 22:54:00,57.9,47.0,30.07,ENE,68,0.0,0.0,67,0.00,CLR,,0.32,WeatherDisplay:10.37,2013-10-07 03:54:00,
2013-10-06 22:59:00,57.8,46.9,30.07,ENE,68,0.0,0.0,67,0.00,CLR,,0.32,WeatherDisplay:10.37,2013-10-07 03:59:00,
2013-10-06 23:01:00,57.8,47.3,30.07,WNW,294,0.0,1.2,68,0.00,CLR,,0.32,WeatherDisplay:10.37,2013-10-07 04:01:00,
2013-10-06 23:06:00,57.7,47.2,30.07,WNW,296,0.0,1.2,68,0.00,CLR,,0.32,WeatherDisplay:10.37,2013-10-07 04:06:00,
2013-10-06 23:11:00,57.6,47.5,30.07,WNW,296,0.0,0.0,69,0.00,CLR,,0.32,WeatherDisplay:10.37,2013-10-07 04:11:00,
2013-10-06 23:16:00,57.6,47.5,30.07,WNW,296,0.0,0.0,69,0.00,CLR,,0.32,WeatherDisplay:10.37,2013-10-07 04:16:00,
2013-10-06 23:21:00,57.5,47.8,30.07,WNW,296,0.0,0.0,70,0.00,CLR,,0.32,WeatherDisplay:10.37,2013-10-07 04:21:00,
2013-10-06 23:26:00,57.5,47.8,30.07,WNW,296,0.0,0.0,70,0.00,CLR,,0.32,WeatherDisplay:10.37,2013-10-07 04:26:00,
2013-10-06 23:31:00,57.5,48.2,30.07,WNW,296,0.0,0.0,71,0.00,CLR,,0.32,WeatherDisplay:10.37,2013-10-07 04:31:00,
2013-10-06 23:36:00,57.3,48.0,30.07,WNW,296,0.0,0.0,71,0.00,CLR,,0.32,WeatherDisplay:10.37,2013-10-07 04:36:00,
2013-10-06 23:41:00,57.2,48.3,30.07,WNW,296,0.0,0.0,72,0.00,CLR,,0.32,WeatherDisplay:10.37,2013-10-07 04:41:00,
2013-10-06 23:46:00,57.1,48.5,30.07,WNW,296,0.0,0.0,73,0.00,CLR,,0.32,WeatherDisplay:10.37,2013-10-07 04:46:00,
2013-10-06 23:51:00,56.9,48.3,30.07,WNW,296,0.0,0.0,73,0.00,CLR,,0.32,WeatherDisplay:10.37,2013-10-07 04:51:00,
2013-10-06 23:56:00,56.8,48.6,30.07,WNW,296,0.0,0.0,74,0.00,CLR,,0.32,WeatherDisplay:10.37,2013-10-07 04:56:00,